Aérodrome :
LOGIN :

S'inscrire | Disclaimer

   EN    FR    IT 

 










Légende :    VFR   VFR Marginal   IFR   IFR Intensif   IFR Très Intensif
Visi : 
Plafond : 
>= 8 km
>= 3000ft
5 à 8 km
1000 à 3000 ft
1500m à 5 km
500 à 1000 ft
800 à 1500m
200 à 500 ft
< 800m
< 200 ft
Symboles :   Orages  Brouillard  Fortes neiges  Fortes précipitations  Vent > 20 kt
SIGMETs :   Divers  Orages  Givrage  Turbulence  Onde Orograph.  Cendres Volcan.







- Altitude de l'aérodrome : 157 ft
- Code IATA : LIL
- Voir les cartes d'approche


LFQQ - Lille Lesquin

DERNIER METAR :
  • 250630Z AUTO 18003KT 150V240 0400 0350 R26/0500N R08/0650U FG VV/// 15/14 Q1017 BECMG 4000 BR SCT030

METARs EXPIRÉS :
  • 250600Z AUTO 16003KT 120V200 0550 0500 R26/0650D R08/0800D FG VV/// 15/14 Q1017 TEMPO 0600 FG OVC002
  • 250530Z AUTO 17004KT 1400 1200 R26/1800D R08/1800D BR OVC002 15/14 Q1017 TEMPO 0600 FG
  • 250500Z AUTO 16002KT 1700 BR OVC004 15/14 Q1017 TEMPO 1200
  • 250430Z AUTO VRB02KT 1700 BR OVC005 14/14 Q1017 TEMPO 1200
  • 250400Z AUTO 14003KT 2000 BR OVC005 14/14 Q1016 TEMPO 1200

TAF AMD TAF LFQQ
Valide du 25 à 06h jusqu'au 26 à 12h UTC


250623Z 2506/2612 VRB02KT 1500 BR OVC006
TEMPO 2506/2508 0200 FG VV///
BECMG 2508/2510 4000 BR SCT030
BECMG 2510/2512 9999 NSW
PROB30
TEMPO 2516/2602 4000 SHRA BKN040CB
PROB40 2602/2606 3000 BR
BECMG 2607/2609 06012KT
ATIS : +33 3 20 16 19 54
Pas de NOTAMs connus pour ce terrain.



MET'MAP, la Météo Aéronautique d'un coup d'oeil ! - Copyright ORBIFLY Décembre 2007 - Disclaimer

ORBIFLY MET'MAP TEAM :

Programmation & Développement : Alexandra Zaïnal
Conception & Développement : Baudouin d'Aumeries
Co-Programmation & Développement : Marc-Olivier Méhu
Soutien technique & logistique : Manuel Goepfert

Contact : metmap@orbifly.com




SOURCES & CREDITS :

   NOAA